createdAt,value
2018-05-03T00:01:26.779Z,93.40
2018-05-03T00:03:54.908Z,93.30
2018-05-03T00:06:23.826Z,93.50
2018-05-03T00:08:52.656Z,93.70
2018-05-03T00:11:20.756Z,93.60
2018-05-03T00:13:48.848Z,93.70
2018-05-03T00:16:16.966Z,93.40
2018-05-03T00:18:45.824Z,93.70
2018-05-03T00:21:13.927Z,93.70
2018-05-03T00:23:42.022Z,93.50
2018-05-03T00:26:10.116Z,93.60
2018-05-03T00:28:38.979Z,93.40
2018-05-03T00:31:07.069Z,93.30
2018-05-03T00:33:35.173Z,93.50
2018-05-03T00:36:03.266Z,93.60
2018-05-03T00:38:31.434Z,93.00
2018-05-03T00:40:59.531Z,92.90
2018-05-03T00:43:27.685Z,93.00
2018-05-03T00:45:55.819Z,92.40
2018-05-03T00:48:24.698Z,92.30
2018-05-03T00:50:52.785Z,92.20
2018-05-03T00:53:20.889Z,92.70
2018-05-03T00:55:49.789Z,92.70
2018-05-03T00:58:17.876Z,92.60
2018-05-03T01:00:46.760Z,92.10
2018-05-03T01:03:15.660Z,92.60
2018-05-03T01:05:43.748Z,92.60
2018-05-03T01:08:11.852Z,92.60
2018-05-03T01:10:40.667Z,92.60
2018-05-03T01:13:08.831Z,92.60
2018-05-03T01:15:37.447Z,92.50
2018-05-03T01:18:05.574Z,92.40
2018-05-03T01:20:34.218Z,92.20
2018-05-03T01:23:02.360Z,91.60
2018-05-03T01:25:30.480Z,92.00
2018-05-03T01:27:58.583Z,92.20
2018-05-03T01:30:27.475Z,92.40
2018-05-03T01:32:56.327Z,92.30
2018-05-03T01:35:36.366Z,92.30
2018-05-03T01:38:04.463Z,92.10
2018-05-03T01:40:32.576Z,91.60
2018-05-03T01:43:00.651Z,91.50
2018-05-03T01:45:28.768Z,91.60
2018-05-03T01:47:56.871Z,91.60
2018-05-03T01:50:25.763Z,92.30
2018-05-03T01:52:53.859Z,92.70
2018-05-03T01:55:22.711Z,93.10
2018-05-03T01:57:50.810Z,93.10
2018-05-03T02:00:18.901Z,93.40
2018-05-03T02:02:47.024Z,93.30
2018-05-03T02:05:15.928Z,92.40
2018-05-03T02:07:44.776Z,93.40
2018-05-03T02:10:12.871Z,93.40
2018-05-03T02:12:40.960Z,93.10
2018-05-03T02:15:09.072Z,92.80
2018-05-03T02:17:37.148Z,92.90
2018-05-03T02:20:05.262Z,92.60
2018-05-03T02:22:33.388Z,92.80
2018-05-03T02:25:01.476Z,93.10
2018-05-03T02:27:29.534Z,93.40
2018-05-03T02:29:57.670Z,93.00
2018-05-03T02:32:25.760Z,93.20
2018-05-03T02:34:53.860Z,93.40
2018-05-03T02:37:22.722Z,93.20
2018-05-03T02:39:50.840Z,93.10
2018-05-03T02:42:19.688Z,92.90
2018-05-03T02:44:47.801Z,92.80
2018-05-03T02:47:15.925Z,92.60
2018-05-03T02:49:44.839Z,91.90
2018-05-03T02:52:12.965Z,91.90
2018-05-03T02:54:41.092Z,91.70
2018-05-03T02:57:21.821Z,91.10
2018-05-03T03:00:01.807Z,91.10
2018-05-03T03:02:47.547Z,91.20
2018-05-03T03:05:34.217Z,91.20
2018-05-03T03:11:59.879Z,90.60
2018-05-03T03:14:45.498Z,89.60
2018-05-03T03:17:31.310Z,89.00
2018-05-03T03:20:17.095Z,88.30
2018-05-03T03:23:02.957Z,87.90
2018-05-03T03:29:11.670Z,85.70
2018-05-03T03:34:46.091Z,85.40
2018-05-03T03:37:26.074Z,84.90
2018-05-03T03:40:11.902Z,84.30
2018-05-03T03:45:48.447Z,83.20
2018-05-03T03:48:16.487Z,82.80
2018-05-03T03:50:44.537Z,82.00
2018-05-03T03:53:13.361Z,81.90
2018-05-03T03:55:42.170Z,81.90
2018-05-03T03:58:10.223Z,81.80
2018-05-03T04:00:39.040Z,82.10
2018-05-03T04:03:07.079Z,82.00
2018-05-03T04:05:35.141Z,81.50
2018-05-03T04:08:03.195Z,82.20
2018-05-03T04:10:31.259Z,82.30
2018-05-03T04:13:00.071Z,82.20
2018-05-03T04:15:28.126Z,81.90
2018-05-03T04:18:08.078Z,82.10
2018-05-03T04:20:48.064Z,82.00
2018-05-03T04:26:17.329Z,83.50
2018-05-03T04:28:45.372Z,83.40
2018-05-03T04:31:13.426Z,83.90
2018-05-03T04:33:41.461Z,84.50
2018-05-03T04:36:10.284Z,83.90
2018-05-03T04:38:38.335Z,84.70
2018-05-03T04:41:06.390Z,84.80
2018-05-03T04:43:34.445Z,83.90
2018-05-03T04:46:02.482Z,84.20
2018-05-03T04:48:30.547Z,83.30
2018-05-03T04:50:58.595Z,83.70
2018-05-03T04:53:26.677Z,83.10
2018-05-03T04:55:55.475Z,83.20
2018-05-03T04:58:23.533Z,83.10
2018-05-03T05:00:51.572Z,83.10
2018-05-03T05:03:19.644Z,82.40
2018-05-03T05:05:47.682Z,82.90
2018-05-03T05:08:15.772Z,83.50
2018-05-03T05:10:43.803Z,83.30
2018-05-03T05:13:11.860Z,84.10
2018-05-03T05:15:39.887Z,83.00
2018-05-03T05:18:07.942Z,82.20
2018-05-03T05:20:35.996Z,82.40
2018-05-03T05:23:04.814Z,82.60
2018-05-03T05:25:32.850Z,82.50
2018-05-03T05:28:00.899Z,82.30
2018-05-03T05:30:28.934Z,81.90
2018-05-03T05:32:56.979Z,80.90
2018-05-03T05:35:25.026Z,80.50
2018-05-03T05:37:53.081Z,80.00
2018-05-03T05:40:21.126Z,81.60
2018-05-03T05:42:49.178Z,81.00
2018-05-03T05:45:17.225Z,82.10
2018-05-03T05:47:45.281Z,81.60
2018-05-03T05:50:13.339Z,81.20
2018-05-03T05:52:41.380Z,82.60
2018-05-03T05:55:09.435Z,82.70
2018-05-03T05:57:37.493Z,81.90
2018-05-03T06:00:06.296Z,80.10
2018-05-03T06:02:34.331Z,79.90
2018-05-03T06:05:03.169Z,80.20
2018-05-03T06:07:31.270Z,80.20
2018-05-03T06:10:00.105Z,79.60
2018-05-03T06:12:28.204Z,79.60
2018-05-03T06:14:56.328Z,79.20
2018-05-03T06:17:25.185Z,79.20
2018-05-03T06:19:53.362Z,79.20
2018-05-03T06:22:21.459Z,78.70
2018-05-03T06:24:49.573Z,78.60
2018-05-03T06:27:18.483Z,78.00
2018-05-03T06:29:47.386Z,79.00
2018-05-03T06:32:16.278Z,77.60
2018-05-03T06:34:45.178Z,77.60
2018-05-03T06:37:13.279Z,77.60
2018-05-03T06:39:42.123Z,78.30
2018-05-03T06:42:10.238Z,78.30
2018-05-03T06:44:38.327Z,78.30
2018-05-03T06:47:06.477Z,77.60
2018-05-03T06:49:34.625Z,76.90
2018-05-03T06:52:03.485Z,77.70
2018-05-03T06:54:31.609Z,77.70
2018-05-03T06:57:00.477Z,77.00
2018-05-03T06:59:28.599Z,77.00
2018-05-03T07:01:56.724Z,76.20
2018-05-03T07:04:24.884Z,76.20
2018-05-03T07:06:53.743Z,76.70
2018-05-03T07:09:21.902Z,76.70
2018-05-03T07:11:50.023Z,76.30
2018-05-03T07:14:18.139Z,76.20
2018-05-03T07:16:46.241Z,74.90
2018-05-03T07:19:14.359Z,74.60
2018-05-03T07:21:42.488Z,73.90
2018-05-03T07:24:11.309Z,73.20
2018-05-03T07:26:39.444Z,73.20
2018-05-03T07:29:07.538Z,73.60
2018-05-03T07:31:36.414Z,73.40
2018-05-03T07:34:04.522Z,73.30
2018-05-03T07:36:32.702Z,72.10
2018-05-03T07:39:00.781Z,72.10
2018-05-03T07:41:29.311Z,72.20
2018-05-03T07:43:58.140Z,73.00
2018-05-03T07:46:26.203Z,72.90
2018-05-03T07:48:54.284Z,73.40
2018-05-03T07:51:23.125Z,73.60
2018-05-03T07:53:51.219Z,73.60
2018-05-03T07:56:19.327Z,73.50
2018-05-03T07:58:47.420Z,73.60
2018-05-03T08:01:15.510Z,74.50
2018-05-03T08:03:43.617Z,75.00
2018-05-03T08:06:11.764Z,73.00
2018-05-03T08:08:39.851Z,72.30
2018-05-03T08:11:07.950Z,72.70
2018-05-03T08:13:36.055Z,72.90
2018-05-03T08:16:04.167Z,72.60
2018-05-03T08:18:32.275Z,72.80
2018-05-03T08:21:00.355Z,73.80
2018-05-03T08:23:28.465Z,74.10
2018-05-03T08:25:56.605Z,73.20
2018-05-03T08:28:24.765Z,73.50
2018-05-03T08:30:53.627Z,71.70
2018-05-03T08:33:21.721Z,71.60
2018-05-03T08:35:49.805Z,72.10
2018-05-03T08:38:17.973Z,72.40
2018-05-03T08:40:46.091Z,72.10
2018-05-03T08:43:15.021Z,73.10
2018-05-03T08:45:43.142Z,73.10
2018-05-03T08:48:11.315Z,71.70
2018-05-03T08:50:39.406Z,73.30
2018-05-03T08:53:07.484Z,72.00
2018-05-03T08:55:35.605Z,73.50
2018-05-03T08:58:03.624Z,73.40
2018-05-03T09:00:31.718Z,72.20
2018-05-03T09:02:59.819Z,72.00
2018-05-03T09:05:27.897Z,73.30
2018-05-03T09:07:56.102Z,73.00
2018-05-03T09:10:24.878Z,73.50
2018-05-03T09:12:52.948Z,73.50
2018-05-03T09:15:21.079Z,70.20
2018-05-03T09:17:49.163Z,70.00
2018-05-03T09:20:17.280Z,71.40
2018-05-03T09:22:45.402Z,70.80
2018-05-03T09:25:13.536Z,70.60
2018-05-03T09:27:41.648Z,70.30
2018-05-03T09:30:10.497Z,72.30
2018-05-03T09:32:38.636Z,71.40
2018-05-03T09:35:07.064Z,71.10
2018-05-03T09:37:35.200Z,70.90
2018-05-03T09:40:03.277Z,68.30
2018-05-03T09:42:31.350Z,70.10
2018-05-03T09:44:59.466Z,69.40
2018-05-03T09:47:27.542Z,70.40
2018-05-03T09:49:55.628Z,69.80
2018-05-03T09:52:24.544Z,71.10
2018-05-03T09:54:52.572Z,70.90
2018-05-03T09:57:20.695Z,69.10
2018-05-03T09:59:48.792Z,68.50
2018-05-03T10:02:17.639Z,69.00
2018-05-03T10:04:45.803Z,68.90
2018-05-03T10:07:14.627Z,69.10
2018-05-03T10:09:42.789Z,69.10
2018-05-03T10:12:10.880Z,69.80
2018-05-03T10:14:39.037Z,69.90
2018-05-03T10:17:07.063Z,69.30
2018-05-03T10:19:35.170Z,69.50
2018-05-03T10:22:03.312Z,71.10
2018-05-03T10:24:32.195Z,67.90
2018-05-03T10:27:01.087Z,66.90
2018-05-03T10:29:29.202Z,66.80
2018-05-03T10:31:57.316Z,66.50
2018-05-03T10:34:25.441Z,63.20
2018-05-03T10:36:53.525Z,64.70
2018-05-03T10:39:21.620Z,65.00
2018-05-03T10:41:49.723Z,67.60
2018-05-03T10:44:18.599Z,65.40
2018-05-03T10:46:46.692Z,65.30
2018-05-03T10:49:14.969Z,66.00
2018-05-03T10:51:43.071Z,64.40
2018-05-03T10:54:11.159Z,64.80
2018-05-03T10:56:40.009Z,66.60
2018-05-03T10:59:08.177Z,65.80
2018-05-03T11:01:36.272Z,66.10
2018-05-03T11:04:04.384Z,65.30
2018-05-03T11:06:33.322Z,62.10
2018-05-03T11:09:01.398Z,62.20
2018-05-03T11:11:30.306Z,65.00
2018-05-03T11:13:58.430Z,65.10
2018-05-03T11:16:26.543Z,64.40
2018-05-03T11:18:54.640Z,61.00
2018-05-03T11:21:22.729Z,61.10
2018-05-03T11:23:50.842Z,61.40
2018-05-03T11:26:19.693Z,59.70
2018-05-03T11:28:47.787Z,59.60
2018-05-03T11:31:15.883Z,60.80
2018-05-03T11:33:43.969Z,58.50
2018-05-03T11:36:12.840Z,59.00
2018-05-03T11:38:40.904Z,59.00
2018-05-03T11:41:09.030Z,60.50
2018-05-03T11:43:37.127Z,57.80
2018-05-03T11:46:05.224Z,58.90
2018-05-03T11:48:34.071Z,56.00
2018-05-03T11:51:02.147Z,55.90
2018-05-03T11:53:30.262Z,57.90
2018-05-03T11:55:58.386Z,57.50
2018-05-03T11:58:27.262Z,57.50
2018-05-03T12:00:55.370Z,57.40
2018-05-03T12:03:24.280Z,56.40
2018-05-03T12:05:53.155Z,57.80
2018-05-03T12:08:21.249Z,57.80
2018-05-03T12:10:50.871Z,57.80
2018-05-03T12:13:18.974Z,57.80
2018-05-03T12:15:47.860Z,54.70
2018-05-03T12:18:15.967Z,54.60
2018-05-03T12:20:44.061Z,57.70
2018-05-03T12:23:12.202Z,57.00
2018-05-03T12:25:40.293Z,57.40
2018-05-03T12:28:08.386Z,57.40
2018-05-03T12:30:36.465Z,55.60
2018-05-03T12:33:04.562Z,56.90
2018-05-03T12:35:33.382Z,57.10
2018-05-03T12:38:01.480Z,57.00
2018-05-03T12:40:30.333Z,56.40
2018-05-03T12:42:58.439Z,56.40
2018-05-03T12:45:27.312Z,55.00
2018-05-03T12:47:55.403Z,54.90
2018-05-03T12:50:23.485Z,56.50
2018-05-03T12:52:51.609Z,57.30
2018-05-03T12:55:19.715Z,58.30
2018-05-03T12:57:47.830Z,57.60
2018-05-03T13:00:15.952Z,56.00
2018-05-03T13:02:44.852Z,56.30
2018-05-03T13:05:12.953Z,56.20
2018-05-03T13:07:41.849Z,56.90
2018-05-03T13:10:10.702Z,56.50
2018-05-03T13:12:38.805Z,56.40
2018-05-03T13:15:06.871Z,55.40
2018-05-03T13:17:34.979Z,56.80
2018-05-03T13:20:03.099Z,57.50
2018-05-03T13:22:32.001Z,58.50
2018-05-03T13:25:00.857Z,58.00
2018-05-03T13:27:28.994Z,57.90
2018-05-03T13:29:57.129Z,58.10
2018-05-03T13:32:25.253Z,55.20
2018-05-03T13:34:54.087Z,56.90
2018-05-03T13:37:22.218Z,56.80
2018-05-03T13:39:50.312Z,57.30
2018-05-03T13:42:18.464Z,55.60
2018-05-03T13:44:46.581Z,56.10
2018-05-03T13:47:14.728Z,56.40
2018-05-03T13:49:42.844Z,57.10
2018-05-03T13:52:10.967Z,59.30
2018-05-03T13:54:39.051Z,59.30
2018-05-03T13:57:07.181Z,56.90
2018-05-03T13:59:35.266Z,57.20
2018-05-03T14:02:03.356Z,56.80
2018-05-03T14:04:31.477Z,57.00
2018-05-03T14:06:59.632Z,57.50
2018-05-03T14:09:27.728Z,57.90
2018-05-03T14:11:55.827Z,58.70
2018-05-03T14:14:24.712Z,58.70
2018-05-03T14:16:52.780Z,58.60
2018-05-03T14:19:20.908Z,57.80
2018-05-03T14:21:48.996Z,58.00
2018-05-03T14:24:17.854Z,56.70
2018-05-03T14:26:45.922Z,56.60
2018-05-03T14:29:14.025Z,55.70
2018-05-03T14:31:42.125Z,56.40
2018-05-03T14:34:10.234Z,56.00
2018-05-03T14:36:39.090Z,54.90
2018-05-03T14:39:07.194Z,54.70
2018-05-03T14:41:35.265Z,52.40
2018-05-03T14:44:03.375Z,54.30
2018-05-03T14:46:32.236Z,54.20
2018-05-03T14:49:00.349Z,53.60
2018-05-03T14:51:28.630Z,55.90
2018-05-03T14:53:56.675Z,55.00
2018-05-03T14:56:24.752Z,56.90
2018-05-03T14:58:52.826Z,56.30
2018-05-03T15:01:20.892Z,56.10
2018-05-03T15:03:49.761Z,58.60
2018-05-03T15:06:17.848Z,58.50
2018-05-03T15:08:45.936Z,58.90
2018-05-03T15:11:14.028Z,60.00
2018-05-03T15:13:42.160Z,59.10
2018-05-03T15:16:10.429Z,58.00
2018-05-03T15:18:38.338Z,57.00
2018-05-03T15:21:06.417Z,58.30
2018-05-03T15:23:34.520Z,58.90
2018-05-03T15:26:02.652Z,58.00
2018-05-03T15:28:30.782Z,58.20
2018-05-03T15:30:58.884Z,58.10
2018-05-03T15:33:26.969Z,60.10
2018-05-03T15:35:55.078Z,59.10
2018-05-03T15:38:23.180Z,59.10
2018-05-03T15:40:52.050Z,60.60
2018-05-03T15:43:20.139Z,60.40
2018-05-03T15:45:48.232Z,61.20
2018-05-03T15:48:16.323Z,60.80
2018-05-03T15:50:44.435Z,61.30
2018-05-03T15:53:13.317Z,62.40
2018-05-03T22:43:59.915Z,83.10
2018-05-03T22:46:28.009Z,83.60
2018-05-03T22:48:56.111Z,84.20
2018-05-03T22:51:24.980Z,84.40
2018-05-03T22:53:53.085Z,84.40
2018-05-03T22:56:21.221Z,84.60
2018-05-03T22:58:50.089Z,84.90
2018-05-03T23:01:18.184Z,84.90
2018-05-03T23:03:46.277Z,84.80
2018-05-03T23:06:14.397Z,85.40
2018-05-03T23:08:42.539Z,86.30
2018-05-03T23:11:10.655Z,85.60
2018-05-03T23:13:39.511Z,85.80
2018-05-03T23:16:07.611Z,85.80
2018-05-03T23:18:37.224Z,86.50
2018-05-03T23:21:05.390Z,86.50
2018-05-03T23:23:33.438Z,86.50
2018-05-03T23:26:01.548Z,86.90
2018-05-03T23:28:29.650Z,87.50
2018-05-03T23:30:57.819Z,87.20
2018-05-03T23:33:25.951Z,86.90
2018-05-03T23:35:54.015Z,87.10
2018-05-03T23:38:22.166Z,87.80
2018-05-03T23:40:50.243Z,88.00
2018-05-03T23:43:18.347Z,87.60
2018-05-03T23:45:46.444Z,88.10
2018-05-03T23:48:14.593Z,88.10
2018-05-03T23:50:43.410Z,88.50
2018-05-03T23:53:11.527Z,88.40
2018-05-03T23:55:39.630Z,88.60
2018-05-03T23:58:07.707Z,89.10
